Time;durP1;ratioP1;P1;durP2;ratioP2;P2;SDS_P1;SDS_P2;PMS_P1;PMS_P2;Temp;Humidity;BMP_temperature;BMP_pressure;BME280_temperature;BME280_humidity;BME280_pressure;Samples;Min_cycle;Max_cycle;Signal;HPM_P1;HPM_P2
2021/06/14 00:02:27;;;;;;;14.20;7.45;;;;;;;11.47;87.12;101710.28;3550869;40;20094;-50
2021/06/14 00:04:55;;;;;;;13.85;7.43;;;;;;;11.42;87.93;101711.81;3550741;40;20094;-52
2021/06/14 00:07:23;;;;;;;10.80;7.10;;;;;;;11.44;88.08;101706.72;3551298;40;20299;-49
2021/06/14 00:09:50;;;;;;;9.70;6.45;;;;;;;12.15;85.14;101715.38;3550743;40;20084;-56
2021/06/14 00:12:21;;;;;;;11.18;6.10;;;;;;;12.03;84.86;101713.25;3551390;40;20104;-51
2021/06/14 00:14:50;;;;;;;12.77;6.88;;;;;;;11.69;86.69;101709.44;3550383;40;20050;-53
2021/06/14 00:17:17;;;;;;;11.80;6.53;;;;;;;11.72;87.40;101722.34;3551231;40;20306;-49
2021/06/14 00:19:49;;;;;;;12.02;7.00;;;;;;;11.95;86.89;101714.66;3550030;40;20440;-52
2021/06/14 00:22:17;;;;;;;12.95;6.68;;;;;;;12.09;86.74;101705.75;3551472;40;20122;-50
2021/06/14 00:24:45;;;;;;;13.95;7.63;;;;;;;11.84;86.83;101703.16;3549874;40;20554;-51
2021/06/14 00:27:12;;;;;;;14.88;7.68;;;;;;;11.92;87.40;101699.13;3551010;40;20060;-49
2021/06/14 00:29:40;;;;;;;15.55;7.65;;;;;;;11.46;89.62;101699.97;3549715;40;20366;-51
2021/06/14 00:32:07;;;;;;;13.52;7.65;;;;;;;12.00;88.22;101696.84;3548711;40;20056;-52
2021/06/14 00:34:35;;;;;;;12.43;7.75;;;;;;;11.85;88.00;101698.06;3553279;40;20046;-52
2021/06/14 00:37:02;;;;;;;16.27;7.65;;;;;;;11.55;90.89;101691.75;3551376;40;20166;-55
2021/06/14 00:39:29;;;;;;;11.20;6.85;;;;;;;11.30;92.12;101692.50;3550032;40;20097;-49
2021/06/14 00:41:56;;;;;;;14.15;7.95;;;;;;;11.15;92.65;101690.22;3550866;40;20095;-50
2021/06/14 00:44:23;;;;;;;15.60;7.10;;;;;;;11.31;91.15;101695.13;3550638;40;20359;-55
2021/06/14 00:46:51;;;;;;;15.43;7.97;;;;;;;11.19;92.10;101692.97;3550481;40;20141;-51
2021/06/14 00:49:18;;;;;;;13.40;8.20;;;;;;;11.46;90.26;101690.59;3550558;40;20090;-52
2021/06/14 00:51:45;;;;;;;16.33;8.25;;;;;;;11.31;91.69;101692.56;3549929;40;20172;-50
2021/06/14 00:54:12;;;;;;;14.27;7.85;;;;;;;11.64;90.47;101697.22;3551084;40;20128;-55
2021/06/14 00:56:39;;;;;;;14.77;7.70;;;;;;;11.61;90.86;101686.84;3549953;40;20228;-50
2021/06/14 00:59:06;;;;;;;12.63;7.40;;;;;;;11.74;90.20;101686.50;3548513;40;20042;-49
2021/06/14 01:01:34;;;;;;;11.48;7.25;;;;;;;11.49;91.55;101684.69;3549782;40;20046;-53
2021/06/14 01:04:01;;;;;;;14.07;7.20;;;;;;;11.33;91.29;101683.25;3551066;40;20105;-57
2021/06/14 01:06:28;;;;;;;15.02;8.20;;;;;;;11.32;92.58;101680.59;3550433;40;20065;-54
2021/06/14 01:08:55;;;;;;;13.13;8.32;;;;;;;11.08;93.61;101675.41;3550291;40;20094;-53
2021/06/14 01:11:33;;;;;;;13.25;8.48;;;;;;;11.13;94.13;101672.19;3550408;40;20061;-53
2021/06/14 01:14:12;;;;;;;15.02;8.65;;;;;;;10.83;95.72;101671.00;3550712;40;20082;-56
2021/06/14 01:17:04;;;;;;;19.67;9.13;;;;;;;10.85;96.79;101666.78;3549162;40;20082;-50
2021/06/14 01:19:55;;;;;;;14.10;7.75;;;;;;;11.38;94.83;101666.34;3548909;40;20061;-50
2021/06/14 01:22:59;;;;;;;14.25;8.70;;;;;;;11.39;92.45;101664.66;3549152;40;20097;-52
2021/06/14 01:25:38;;;;;;;12.43;8.38;;;;;;;10.80;95.54;101661.50;3550544;40;20258;-52
2021/06/14 01:28:07;;;;;;;14.45;7.72;;;;;;;11.00;94.43;101653.72;3550572;40;20057;-50
2021/06/14 01:30:37;;;;;;;15.07;8.15;;;;;;;11.29;92.84;101655.72;3549506;40;20461;-54
2021/06/14 01:33:08;;;;;;;10.98;8.18;;;;;;;11.43;91.42;101654.56;3550748;40;20061;-53
2021/06/14 01:35:45;;;;;;;15.82;8.40;;;;;;;11.19;91.73;101651.06;3549695;40;20062;-53
2021/06/14 01:38:15;;;;;;;13.23;7.82;;;;;;;10.96;91.85;101653.63;3550296;40;20085;-53
2021/06/14 01:40:43;;;;;;;12.10;7.95;;;;;;;10.51;95.08;101650.06;3549381;40;20054;-54
2021/06/14 01:43:15;;;;;;;14.82;8.40;;;;;;;10.45;95.79;101649.81;3550177;40;20109;-54
2021/06/14 01:45:48;;;;;;;12.52;8.02;;;;;;;10.98;93.52;101650.22;3550345;40;20090;-52
2021/06/14 01:48:16;;;;;;;11.38;7.80;;;;;;;11.19;91.88;101653.63;3550324;40;22884;-53
2021/06/14 01:50:44;;;;;;;13.02;7.38;;;;;;;10.88;92.36;101644.75;3549664;40;20061;-50
2021/06/14 01:53:13;;;;;;;12.38;7.75;;;;;;;10.61;93.68;101647.06;3550745;40;20376;-51
2021/06/14 01:55:41;;;;;;;12.80;7.97;;;;;;;10.25;95.34;101641.28;3549042;40;20076;-53
2021/06/14 01:58:09;;;;;;;13.73;7.65;;;;;;;10.19;95.82;101649.56;3550572;40;20436;-53
2021/06/14 02:00:41;;;;;;;17.48;8.45;;;;;;;10.17;95.99;101648.63;3549535;40;20074;-56
2021/06/14 02:03:10;;;;;;;13.40;7.68;;;;;;;10.31;95.06;101649.25;3548556;40;20097;-52
2021/06/14 02:05:38;;;;;;;11.50;7.30;;;;;;;10.02;95.24;101652.19;3549267;40;20090;-53
2021/06/14 02:08:08;;;;;;;10.88;7.47;;;;;;;9.81;96.15;101650.47;3550301;40;20101;-54
2021/06/14 02:10:36;;;;;;;12.45;7.40;;;;;;;10.32;95.12;101645.88;3549267;40;20132;-51
2021/06/14 02:13:07;;;;;;;12.35;8.18;;;;;;;10.91;92.58;101644.88;3550854;40;20121;-56
2021/06/14 02:15:34;;;;;;;15.02;8.73;;;;;;;10.34;93.23;101643.34;3549532;40;20660;-54
2021/06/14 02:18:03;;;;;;;11.05;7.38;;;;;;;10.00;94.43;101635.91;3550511;40;20062;-51
2021/06/14 02:20:30;;;;;;;12.35;7.85;;;;;;;9.95;95.38;101651.94;3549915;40;20097;-48
2021/06/14 02:22:58;;;;;;;12.95;7.72;;;;;;;10.28;93.84;101651.66;3540652;40;20123;-53
2021/06/14 02:25:25;;;;;;;14.07;8.07;;;;;;;10.22;93.97;101646.25;3550664;40;20093;-54
2021/06/14 02:27:53;;;;;;;12.77;7.65;;;;;;;9.98;95.38;101650.31;3550106;40;20094;-50
2021/06/14 02:30:23;;;;;;;12.32;8.13;;;;;;;9.89;96.21;101651.69;3549665;40;20058;-57
2021/06/14 02:32:52;;;;;;;15.18;7.85;;;;;;;9.95;96.97;101641.69;3549645;40;20353;-48
2021/06/14 02:35:21;;;;;;;19.30;8.73;;;;;;;9.97;96.72;101641.75;3550734;40;20463;-48
2021/06/14 02:37:54;;;;;;;14.02;8.55;;;;;;;9.87;96.87;101637.94;3549600;40;20337;-53
2021/06/14 02:40:30;;;;;;;14.40;8.27;;;;;;;10.09;97.13;101641.44;3550507;40;20394;-53
2021/06/14 02:43:01;;;;;;;16.17;7.70;;;;;;;10.21;94.54;101636.81;3550115;40;20046;-48
2021/06/14 02:45:30;;;;;;;11.77;7.72;;;;;;;9.87;95.58;101634.50;3550072;40;20058;-56
2021/06/14 02:47:58;;;;;;;15.98;7.95;;;;;;;9.82;96.39;101636.84;3550038;40;20050;-48
2021/06/14 02:50:27;;;;;;;13.13;7.85;;;;;;;9.52;96.64;101628.72;3550106;40;20094;-48
2021/06/14 02:52:55;;;;;;;11.80;7.65;;;;;;;9.76;96.58;101634.03;3550093;40;20504;-53
2021/06/14 02:55:28;;;;;;;13.02;7.85;;;;;;;10.03;95.02;101626.69;3550280;40;20074;-51
2021/06/14 02:57:58;;;;;;;12.15;6.93;;;;;;;9.81;94.50;101630.00;3549587;40;20083;-51
2021/06/14 03:00:30;;;;;;;14.48;7.93;;;;;;;10.02;94.68;101634.28;3549350;40;20090;-50
2021/06/14 03:03:04;;;;;;;13.77;8.02;;;;;;;10.33;92.86;101628.81;3549784;40;20058;-52
2021/06/14 03:05:32;;;;;;;13.55;7.55;;;;;;;9.84;94.66;101631.78;3549365;40;20430;-50
2021/06/14 03:08:00;;;;;;;14.68;8.50;;;;;;;9.44;97.17;101630.91;3550080;40;20354;-50
2021/06/14 03:10:31;;;;;;;11.60;7.97;;;;;;;10.28;93.96;101635.44;3549496;40;20367;-53
2021/06/14 03:13:01;;;;;;;14.90;8.32;;;;;;;9.93;94.23;101632.19;3549927;40;20488;-50
2021/06/14 03:15:29;;;;;;;16.65;8.82;;;;;;;9.57;97.04;101623.81;3549632;40;20065;-51
2021/06/14 03:17:59;;;;;;;12.70;8.60;;;;;;;10.15;95.27;101628.88;3549774;40;20829;-52
2021/06/14 03:20:27;;;;;;;12.50;7.75;;;;;;;10.32;92.78;101622.81;3549721;40;20455;-53
2021/06/14 03:22:54;;;;;;;15.43;8.93;;;;;;;9.64;96.37;101615.59;3550090;40;20194;-51
2021/06/14 03:25:22;;;;;;;17.08;9.45;;;;;;;9.51;98.01;101613.28;3550167;40;20057;-53
2021/06/14 03:27:50;;;;;;;14.82;8.82;;;;;;;10.28;95.03;101620.06;3549124;40;20640;-51
2021/06/14 03:30:21;;;;;;;14.73;9.18;;;;;;;10.40;94.26;101611.22;3550057;40;20082;-54
2021/06/14 03:32:49;;;;;;;14.35;8.57;;;;;;;9.87;96.64;101608.91;3549373;40;20054;-56
2021/06/14 03:35:21;;;;;;;17.00;8.57;;;;;;;9.80;98.90;101612.00;3551572;40;20109;-50
2021/06/14 03:37:49;;;;;;;16.83;8.73;;;;;;;9.94;98.66;101616.06;3550564;40;20086;-51
2021/06/14 03:40:18;;;;;;;14.55;8.98;;;;;;;10.48;96.40;101613.19;3551649;40;20472;-51
2021/06/14 03:42:45;;;;;;;15.65;8.90;;;;;;;10.34;95.94;101622.88;3550435;40;20050;-56
2021/06/14 03:45:13;;;;;;;14.43;8.88;;;;;;;10.20;96.71;101619.72;3551787;40;20089;-50
2021/06/14 03:47:41;;;;;;;16.27;9.43;;;;;;;10.05;98.12;101614.81;3550303;40;20066;-51
2021/06/14 03:50:10;;;;;;;17.02;8.38;;;;;;;10.25;97.23;101615.69;3551810;40;20675;-53
2021/06/14 03:52:40;;;;;;;16.30;8.93;;;;;;;10.81;94.75;101622.22;3550173;40;20438;-52
2021/06/14 03:55:08;;;;;;;15.82;8.88;;;;;;;10.58;95.16;101618.75;3549059;40;20073;-48
2021/06/14 03:57:36;;;;;;;16.73;9.75;;;;;;;10.31;96.75;101622.78;3550168;40;20080;-50
2021/06/14 04:00:06;;;;;;;15.02;8.77;;;;;;;10.74;96.17;101624.50;3551690;40;20057;-49
2021/06/14 04:02:33;;;;;;;13.65;8.48;;;;;;;10.89;95.06;101623.41;3550716;40;20089;-51
2021/06/14 04:05:00;;;;;;;18.63;8.18;;;;;;;11.09;93.16;101633.56;3551346;40;20139;-57
2021/06/14 04:07:27;;;;;;;13.98;8.50;;;;;;;11.40;91.79;101626.22;3550853;40;20062;-51
2021/06/14 04:09:59;;;;;;;15.18;9.30;;;;;;;11.01;93.31;101632.41;3551374;40;20069;-48
2021/06/14 04:12:30;;;;;;;15.52;8.73;;;;;;;10.73;95.41;101627.91;3550909;40;20094;-49
2021/06/14 04:14:57;;;;;;;16.02;7.70;;;;;;;10.64;96.30;101628.41;3551345;40;20436;-53
2021/06/14 04:17:25;;;;;;;17.83;8.40;;;;;;;10.66;96.62;101619.06;3551367;40;20079;-48
2021/06/14 04:19:56;;;;;;;13.45;9.00;;;;;;;10.80;95.73;101627.31;3551123;40;20145;-52
2021/06/14 04:22:23;;;;;;;14.68;8.45;;;;;;;10.82;96.18;101628.25;3551561;40;20098;-49
2021/06/14 04:24:50;;;;;;;14.43;8.07;;;;;;;10.85;95.75;101626.66;3550619;40;20097;-52
2021/06/14 04:27:17;;;;;;;15.85;8.88;;;;;;;11.10;95.17;101625.94;3551549;40;20082;-53
2021/06/14 04:29:44;;;;;;;17.60;8.82;;;;;;;11.12;95.35;101619.19;3550184;40;20083;-51
2021/06/14 04:32:11;;;;;;;14.55;8.70;;;;;;;11.17;94.76;101619.34;3555113;40;20436;-58
2021/06/14 04:34:39;;;;;;;16.88;9.25;;;;;;;11.19;95.23;101612.63;3550370;40;20122;-56
2021/06/14 04:37:06;;;;;;;15.35;8.07;;;;;;;11.58;93.29;101608.06;3551322;40;20062;-57
2021/06/14 04:39:34;;;;;;;13.15;8.80;;;;;;;11.62;93.12;101609.94;3550372;40;20117;-57
2021/06/14 04:42:01;;;;;;;17.27;9.13;;;;;;;11.77;93.57;101607.03;3551619;40;20064;-52
2021/06/14 04:44:28;;;;;;;18.30;8.50;;;;;;;11.93;93.24;101604.25;3554522;40;20428;-56
2021/06/14 04:46:55;;;;;;;17.98;9.25;;;;;;;11.97;92.85;101598.41;3550860;40;20108;-55
2021/06/14 04:49:22;;;;;;;17.27;9.00;;;;;;;12.13;93.08;101606.63;3551332;40;20050;-54
2021/06/14 04:51:50;;;;;;;15.52;8.50;;;;;;;12.12;92.93;101608.31;3550910;40;20069;-53
2021/06/14 04:54:16;;;;;;;16.02;9.27;;;;;;;12.32;92.76;101610.66;3551644;40;20089;-59
2021/06/14 04:56:44;;;;;;;15.88;8.88;;;;;;;12.49;92.35;101615.53;3551893;40;20065;-55
2021/06/14 04:59:11;;;;;;;14.57;8.68;;;;;;;12.90;91.45;101621.13;3551382;40;20053;-55
2021/06/14 05:01:38;;;;;;;17.85;8.48;;;;;;;12.91;90.33;101617.72;3550163;40;20093;-54
2021/06/14 05:04:05;;;;;;;13.27;8.13;;;;;;;13.03;90.74;101619.78;3548842;40;20050;-52
2021/06/14 05:06:32;;;;;;;14.07;8.52;;;;;;;13.31;90.47;101618.97;3550556;40;20097;-59
2021/06/14 05:08:59;;;;;;;13.85;8.57;;;;;;;13.38;88.80;101618.31;3551176;40;20107;-56
2021/06/14 05:11:26;;;;;;;12.35;8.25;;;;;;;13.54;88.37;101624.75;3551006;40;20349;-55
2021/06/14 05:13:53;;;;;;;17.10;8.80;;;;;;;13.52;87.11;101620.41;3550663;40;20090;-55
2021/06/14 05:16:20;;;;;;;12.05;7.60;;;;;;;13.75;86.88;101616.78;3551167;40;20093;-54
2021/06/14 05:18:47;;;;;;;16.40;7.78;;;;;;;13.75;86.04;101622.78;3549894;40;20074;-56
2021/06/14 05:21:14;;;;;;;15.70;7.40;;;;;;;13.82;85.62;101622.97;3551435;40;20098;-54
2021/06/14 05:23:41;;;;;;;33.75;11.70;;;;;;;13.91;87.63;101626.69;3551394;40;20085;-58
2021/06/14 05:26:08;;;;;;;14.70;7.82;;;;;;;14.12;85.46;101631.53;3545823;40;20061;-58
2021/06/14 05:28:35;;;;;;;18.58;8.57;;;;;;;14.35;84.61;101624.38;3545328;40;20090;-56
2021/06/14 05:31:04;;;;;;;14.80;7.22;;;;;;;14.55;82.41;101626.59;3548700;40;20078;-56
2021/06/14 05:33:31;;;;;;;11.88;6.93;;;;;;;14.64;81.52;101626.81;3545923;40;20452;-54
2021/06/14 05:35:58;;;;;;;14.55;6.82;;;;;;;14.78;81.16;101628.91;3546192;40;20086;-52
2021/06/14 05:38:25;;;;;;;15.85;5.93;;;;;;;15.18;74.39;101632.38;3546367;40;20050;-52
2021/06/14 05:40:52;;;;;;;13.55;5.88;;;;;;;15.43;73.57;101633.78;3551041;40;20069;-53
2021/06/14 05:43:19;;;;;;;12.63;6.10;;;;;;;15.63;73.26;101638.50;3548951;40;20054;-59
2021/06/14 05:45:47;;;;;;;13.05;6.18;;;;;;;15.67;71.70;101632.59;3545321;40;20077;-53
2021/06/14 05:48:14;;;;;;;17.88;6.65;;;;;;;15.96;70.75;101634.00;3545511;40;20054;-56
2021/06/14 05:50:41;;;;;;;12.20;5.68;;;;;;;15.89;71.34;101632.13;3545141;40;20086;-53
2021/06/14 05:53:09;;;;;;;15.05;6.15;;;;;;;15.99;69.97;101639.25;3551488;40;20352;-55
2021/06/14 05:55:36;;;;;;;10.30;5.55;;;;;;;15.98;70.65;101636.63;3555987;40;20911;-57
2021/06/14 05:58:03;;;;;;;11.45;5.43;;;;;;;16.17;70.26;101646.44;3550079;40;20086;-53
2021/06/14 06:00:31;;;;;;;11.00;6.10;;;;;;;16.20;69.96;101640.47;3552747;40;20506;-55
2021/06/14 06:02:58;;;;;;;12.18;5.85;;;;;;;16.46;70.24;101644.38;3555599;40;20066;-56
2021/06/14 06:05:25;;;;;;;12.57;5.32;;;;;;;16.62;71.75;101642.91;3555841;40;20919;-56
2021/06/14 06:07:53;;;;;;;13.15;5.40;;;;;;;16.72;69.18;101650.00;3552708;40;20088;-56
2021/06/14 06:10:20;;;;;;;10.80;5.03;;;;;;;16.75;67.38;101651.78;3553540;40;20082;-55
2021/06/14 06:12:47;;;;;;;10.93;5.15;;;;;;;16.67;68.93;101646.44;3555535;40;20098;-51
2021/06/14 06:15:17;;;;;;;12.00;4.55;;;;;;;16.92;67.21;101642.56;3551551;40;20160;-59
2021/06/14 06:17:45;;;;;;;13.90;4.85;;;;;;;16.96;67.77;101638.28;3545261;40;20072;-59
2021/06/14 06:20:14;;;;;;;11.40;5.78;;;;;;;17.02;67.53;101636.66;3547818;40;20405;-56
2021/06/14 06:22:42;;;;;;;13.00;5.80;;;;;;;17.12;67.76;101634.22;3544239;40;20611;-56
2021/06/14 06:25:12;;;;;;;13.73;5.82;;;;;;;17.15;68.12;101635.13;3547178;40;20042;-56
2021/06/14 06:27:39;;;;;;;18.17;5.35;;;;;;;17.21;66.13;101637.78;3545342;40;20086;-53
2021/06/14 06:30:08;;;;;;;11.10;5.22;;;;;;;17.51;65.41;101645.06;3545375;40;20059;-53
2021/06/14 06:32:35;;;;;;;14.05;5.22;;;;;;;17.31;65.60;101642.22;3544677;40;20082;-52
2021/06/14 06:35:03;;;;;;;9.57;4.35;;;;;;;17.58;66.23;101642.56;3545356;40;20064;-52
2021/06/14 06:37:30;;;;;;;8.00;4.38;;;;;;;17.65;64.89;101641.78;3540939;40;20055;-59
2021/06/14 06:39:57;;;;;;;10.30;4.47;;;;;;;17.68;64.28;101647.88;3544029;40;20087;-59
2021/06/14 06:42:25;;;;;;;10.95;4.55;;;;;;;17.54;64.01;101646.84;3544882;40;20100;-54
2021/06/14 06:45:04;;;;;;;11.27;4.93;;;;;;;17.94;63.94;101648.22;3545605;40;20429;-54
2021/06/14 06:47:34;;;;;;;11.48;5.85;;;;;;;17.86;63.04;101641.22;3538319;40;20065;-55
2021/06/14 06:50:04;;;;;;;11.05;5.05;;;;;;;17.70;63.74;101648.78;3545271;40;20066;-53
2021/06/14 06:52:32;;;;;;;12.07;5.57;;;;;;;18.02;63.35;101643.94;3545370;40;20071;-52
2021/06/14 06:54:59;;;;;;;11.38;5.35;;;;;;;18.50;64.51;101639.22;3546067;40;20338;-54
2021/06/14 06:57:27;;;;;;;14.73;6.00;;;;;;;18.72;61.79;101635.09;3544771;40;20073;-57
2021/06/14 06:59:54;;;;;;;9.88;4.93;;;;;;;18.73;61.10;101637.72;3545852;40;20057;-53
2021/06/14 07:02:21;;;;;;;12.50;5.10;;;;;;;18.70;61.13;101626.44;3537845;40;20050;-50
2021/06/14 07:04:48;;;;;;;12.23;5.70;;;;;;;19.04;60.63;101628.41;3545730;40;20050;-54
2021/06/14 07:07:16;;;;;;;10.63;4.85;;;;;;;19.20;59.54;101624.16;3545632;40;20116;-52
2021/06/14 07:09:43;;;;;;;9.75;4.80;;;;;;;19.24;57.44;101617.25;3546251;40;20806;-59
2021/06/14 07:12:10;;;;;;;15.60;4.85;;;;;;;19.59;56.11;101614.78;3547623;40;20105;-48
2021/06/14 07:14:37;;;;;;;8.15;4.40;;;;;;;19.72;57.61;101611.41;3546490;40;20042;-52
2021/06/14 07:17:04;;;;;;;13.02;4.93;;;;;;;19.74;55.43;101611.44;3550590;40;20065;-48
2021/06/14 07:19:31;;;;;;;13.65;4.25;;;;;;;19.75;54.00;101608.81;3546039;40;20073;-48
2021/06/14 07:21:59;;;;;;;7.72;4.30;;;;;;;19.69;54.44;101610.50;3552020;40;20095;-58
2021/06/14 07:24:26;;;;;;;8.30;4.60;;;;;;;19.86;54.70;101605.38;3546554;40;20062;-52
2021/06/14 07:26:53;;;;;;;10.82;4.95;;;;;;;20.24;54.43;101608.00;3548923;40;20102;-51
2021/06/14 07:29:20;;;;;;;11.40;5.18;;;;;;;20.16;53.60;101604.56;3548300;40;20078;-54
2021/06/14 07:31:47;;;;;;;10.02;4.47;;;;;;;20.40;53.68;101607.16;3546712;40;20046;-57
2021/06/14 07:34:14;;;;;;;9.75;4.45;;;;;;;20.33;52.44;101608.00;3546370;40;20424;-50
2021/06/14 07:36:47;;;;;;;13.15;4.78;;;;;;;21.01;51.31;101608.84;3546124;40;20056;-54
2021/06/14 07:39:30;;;;;;;7.90;4.40;;;;;;;21.21;51.33;101611.38;3547468;40;20054;-52
2021/06/14 07:42:24;;;;;;;;;;;;;;;21.44;51.01;101612.19;3547391;40;20393;-54
2021/06/14 07:45:01;;;;;;;9.20;4.80;;;;;;;20.99;49.63;101606.25;3546760;40;19946;-50
2021/06/14 07:47:40;;;;;;;11.90;4.90;;;;;;;20.96;50.29;101608.00;3545452;40;20046;-52
2021/06/14 07:50:20;;;;;;;10.85;4.68;;;;;;;21.37;49.21;101599.19;3546427;40;20072;-51
2021/06/14 07:53:05;;;;;;;14.52;4.97;;;;;;;21.20;49.67;101604.44;3546143;40;20054;-53
2021/06/14 07:55:45;;;;;;;8.40;4.63;;;;;;;21.75;49.40;101602.47;3547316;40;20113;-53
2021/06/14 07:58:16;;;;;;;10.13;4.50;;;;;;;21.24;48.98;101607.03;3547421;40;20589;-55
2021/06/14 08:00:56;;;;;;;10.60;4.20;;;;;;;22.24;47.57;101598.69;3545818;40;20094;-55
2021/06/14 08:03:37;;;;;;;11.35;4.72;;;;;;;22.07;47.68;101593.56;3547789;40;20290;-53
2021/06/14 08:06:15;;;;;;;9.10;5.18;;;;;;;22.55;46.85;101594.06;3548943;40;20046;-51
2021/06/14 08:08:54;;;;;;;6.57;4.03;;;;;;;23.13;45.44;101601.31;3546063;40;20050;-60
2021/06/14 08:11:42;;;;;;;11.43;4.03;;;;;;;23.47;44.17;101608.72;3547471;40;20050;-57
2021/06/14 08:14:20;;;;;;;9.25;4.90;;;;;;;23.08;43.28;101603.13;3548747;40;20045;-54
2021/06/14 08:16:51;;;;;;;8.70;5.07;;;;;;;23.16;44.14;101603.00;3547922;40;20054;-60
2021/06/14 08:19:33;;;;;;;14.32;5.30;;;;;;;24.39;42.06;101603.91;3545697;40;20160;-55
2021/06/14 08:27:20;;;;;;;10.27;5.35;;;;;;;23.00;42.62;101591.88;3548672;40;20062;-56
2021/06/14 08:29:50;;;;;;;8.73;4.93;;;;;;;22.46;42.94;101579.34;3545955;40;21754;-57
2021/06/14 08:32:18;;;;;;;10.13;4.82;;;;;;;22.75;44.07;101576.47;3549969;40;20046;-53
2021/06/14 08:34:46;;;;;;;9.73;4.88;;;;;;;23.10;43.54;101580.44;3547536;40;20665;-53
2021/06/14 08:37:14;;;;;;;8.35;5.15;;;;;;;21.92;43.61;101565.84;3545570;40;20053;-53
2021/06/14 08:39:41;;;;;;;8.48;5.22;;;;;;;22.55;42.87;101570.56;3545496;40;20038;-55
2021/06/14 08:42:08;;;;;;;13.95;5.60;;;;;;;22.67;44.16;101575.66;3545939;40;20698;-54
2021/06/14 08:44:36;;;;;;;12.10;4.63;;;;;;;22.07;43.73;101565.72;3545502;40;20057;-56
2021/06/14 08:47:06;;;;;;;8.40;5.10;;;;;;;22.43;45.01;101560.25;3546101;40;20433;-52
2021/06/14 08:49:35;;;;;;;11.88;4.70;;;;;;;22.43;46.95;101560.25;3545411;40;20062;-56
2021/06/14 08:52:04;;;;;;;6.95;4.35;;;;;;;22.33;44.58;101559.47;3546121;40;20061;-58
2021/06/14 08:54:32;;;;;;;7.82;4.75;;;;;;;21.60;44.83;101563.47;3545204;40;20073;-55
2021/06/14 08:56:59;;;;;;;10.85;5.22;;;;;;;22.17;46.95;101563.09;3546306;40;20061;-55
2021/06/14 08:59:27;;;;;;;11.57;4.60;;;;;;;21.84;45.44;101552.00;3545921;40;20062;-53
2021/06/14 09:01:54;;;;;;;6.63;4.50;;;;;;;22.06;43.34;101555.31;3546996;40;20093;-53
2021/06/14 09:04:22;;;;;;;7.65;4.13;;;;;;;21.81;44.35;101546.78;3547184;40;20055;-54
2021/06/14 09:06:49;;;;;;;9.07;4.75;;;;;;;21.97;45.24;101547.56;3545881;40;20078;-59
2021/06/14 09:09:17;;;;;;;8.40;4.63;;;;;;;22.15;44.02;101543.97;3545305;40;20097;-56
2021/06/14 09:12:02;;;;;;;10.35;4.47;;;;;;;22.28;45.97;101550.81;3545711;40;20096;-53
2021/06/14 09:14:32;;;;;;;10.80;5.05;;;;;;;22.40;43.99;101550.69;3545216;40;20120;-48
2021/06/14 09:17:05;;;;;;;8.85;4.90;;;;;;;22.16;45.59;101537.88;3546077;40;20097;-55
2021/06/14 09:19:41;;;;;;;7.78;5.22;;;;;;;22.50;44.53;101541.03;3545331;40;20058;-54
2021/06/14 09:22:13;;;;;;;8.23;3.88;;;;;;;23.10;45.44;101542.09;3545816;40;20435;-54
2021/06/14 09:25:00;;;;;;;6.95;4.60;;;;;;;23.32;44.38;101532.25;3544356;40;20071;-54
2021/06/14 09:27:33;;;;;;;12.20;4.90;;;;;;;23.61;42.63;101526.59;3546046;40;20510;-54
2021/06/14 09:30:23;;;;;;;6.35;4.53;;;;;;;23.05;41.95;101530.84;3545615;40;20080;-54
2021/06/14 09:32:55;;;;;;;8.77;4.78;;;;;;;23.66;40.96;101531.78;3545501;40;20404;-48
2021/06/14 09:35:24;;;;;;;10.43;4.60;;;;;;;23.68;42.24;101524.78;3546731;40;20054;-52
2021/06/14 09:37:56;;;;;;;8.63;3.92;;;;;;;24.55;40.66;101525.09;3545734;40;20062;-51
2021/06/14 09:40:34;;;;;;;5.97;4.13;;;;;;;24.76;39.70;101518.56;3546527;40;20058;-49
2021/06/14 09:43:03;;;;;;;7.57;4.47;;;;;;;24.22;41.73;101503.84;3545752;40;20058;-53
2021/06/14 09:45:31;;;;;;;7.97;4.25;;;;;;;24.78;40.80;101503.69;3545058;40;20081;-53
2021/06/14 09:47:58;;;;;;;7.32;3.97;;;;;;;24.15;40.84;101502.22;3545928;40;20054;-57
2021/06/14 09:50:31;;;;;;;6.10;4.07;;;;;;;25.31;38.91;101499.94;3544837;40;20061;-55
2021/06/14 09:53:22;;;;;;;8.40;4.80;;;;;;;25.34;38.44;101489.38;3545784;40;20430;-50
2021/06/14 09:55:52;;;;;;;7.95;4.35;;;;;;;25.27;39.38;101486.94;3545517;40;20085;-53
2021/06/14 09:58:24;;;;;;;8.73;4.43;;;;;;;25.79;37.96;101483.09;3544873;40;20345;-50
2021/06/14 10:01:02;;;;;;;6.60;3.95;;;;;;;25.35;40.45;101480.63;3547466;40;20102;-49
2021/06/14 10:03:44;;;;;;;5.22;3.63;;;;;;;25.95;38.14;101488.84;3546241;40;20046;-54
2021/06/14 10:06:13;;;;;;;6.85;4.43;;;;;;;25.94;36.07;101480.09;3546357;40;20054;-50
2021/06/14 10:08:47;;;;;;;8.30;4.22;;;;;;;27.69;34.57;101486.44;3544786;40;20083;-56
2021/06/14 10:11:19;;;;;;;8.93;4.05;;;;;;;29.60;30.36;101484.72;3546688;40;20395;-54
2021/06/14 10:13:48;;;;;;;9.90;4.22;;;;;;;29.25;30.06;101479.97;3546683;40;20109;-58
2021/06/14 10:16:24;;;;;;;8.27;4.63;;;;;;;30.54;28.30;101481.56;3544637;40;20074;-52
2021/06/14 10:19:00;;;;;;;8.23;4.65;;;;;;;30.94;30.38;101477.13;3545177;40;20094;-50
2021/06/14 10:21:37;;;;;;;9.57;4.18;;;;;;;35.33;24.05;101484.38;3546048;40;20062;-53
2021/06/14 10:24:09;;;;;;;6.35;3.88;;;;;;;31.16;27.26;101475.19;3545523;40;20053;-52
2021/06/14 10:26:40;;;;;;;9.52;4.20;;;;;;;33.31;25.20;101464.81;3544580;40;20060;-48
2021/06/14 10:29:30;;;;;;;8.02;4.45;;;;;;;34.87;23.19;101481.16;3548002;40;20056;-48
2021/06/14 10:31:59;;;;;;;8.40;3.75;;;;;;;33.73;26.04;101473.06;3545727;40;20046;-52
2021/06/14 10:34:29;;;;;;;10.35;4.13;;;;;;;32.58;24.43;101467.09;3545569;40;20046;-51
2021/06/14 10:36:57;;;;;;;6.25;4.82;;;;;;;32.11;26.05;101457.22;3547817;40;20125;-51
2021/06/14 10:39:26;;;;;;;5.22;4.00;;;;;;;32.61;24.55;101444.88;3544904;40;20053;-54
2021/06/14 10:41:58;;;;;;;5.60;3.75;;;;;;;35.23;21.50;101455.78;3552814;40;20040;-49
2021/06/14 10:44:25;;;;;;;5.03;3.38;;;;;;;34.51;23.08;101445.28;3550559;40;20057;-52
2021/06/14 10:46:52;;;;;;;5.60;3.80;;;;;;;35.06;22.96;101443.56;3552798;40;20386;-49
2021/06/14 10:49:20;;;;;;;6.50;3.20;;;;;;;36.47;22.09;101450.88;3552010;40;20050;-52
2021/06/14 10:51:57;;;;;;;7.43;3.50;;;;;;;35.56;21.42;101442.91;3550600;40;20098;-52
2021/06/14 10:54:42;;;;;;;5.28;3.47;;;;;;;37.77;19.64;101451.06;3550759;40;20464;-53
2021/06/14 10:57:11;;;;;;;5.90;3.67;;;;;;;36.49;20.29;101456.06;3549874;40;20059;-51
2021/06/14 10:59:44;;;;;;;6.93;3.35;;;;;;;33.49;23.80;101431.06;3549081;40;20077;-56
2021/06/14 11:02:13;;;;;;;5.43;3.83;;;;;;;35.88;21.95;101427.38;3549443;40;20059;-51
2021/06/14 11:04:42;;;;;;;5.90;3.20;;;;;;;39.06;18.10;101437.16;3550249;40;20144;-47
2021/06/14 11:07:09;;;;;;;5.93;3.95;;;;;;;36.19;20.02;101428.78;3548283;40;20049;-47
2021/06/14 11:09:52;;;;;;;8.02;3.80;;;;;;;37.35;19.46;101427.47;3550088;40;20340;-47
2021/06/14 11:12:28;;;;;;;6.38;3.83;;;;;;;35.24;22.31;101415.72;3550527;40;20105;-52
2021/06/14 11:14:56;;;;;;;5.75;3.78;;;;;;;38.56;18.80;101422.53;3552254;40;20062;-48
2021/06/14 11:17:35;;;;;;;4.82;3.75;;;;;;;38.21;18.68;101420.84;3550254;40;20058;-50
2021/06/14 11:20:02;;;;;;;5.65;3.83;;;;;;;38.60;18.87;101415.97;3550561;40;20057;-47
2021/06/14 11:22:34;;;;;;;5.82;3.85;;;;;;;38.42;18.58;101418.31;3551375;40;20046;-50
2021/06/14 11:25:24;;;;;;;8.13;3.78;;;;;;;38.78;18.09;101411.81;3553153;40;20053;-50
2021/06/14 11:27:51;;;;;;;9.45;3.80;;;;;;;38.89;18.44;101416.28;3549895;40;20472;-50
2021/06/14 11:30:23;;;;;;;7.18;3.85;;;;;;;36.37;20.93;101399.06;3550592;40;20094;-47
2021/06/14 11:32:51;;;;;;;6.50;3.75;;;;;;;35.56;21.17;101392.28;3551084;40;20193;-48
2021/06/14 11:35:19;;;;;;;7.38;3.55;;;;;;;35.36;21.72;101390.06;3550722;40;20038;-51
2021/06/14 11:37:48;;;;;;;6.15;3.53;;;;;;;37.77;18.71;101392.22;3551096;40;20057;-48
2021/06/14 11:40:23;;;;;;;6.05;3.88;;;;;;;38.88;17.52;101390.47;3551852;40;20048;-51